createdAt,value
2023-10-19T00:00:49.410Z,98324.63
2023-10-19T00:03:17.165Z,98335.00
2023-10-19T00:05:46.181Z,98330.53
2023-10-19T00:08:22.125Z,98321.72
2023-10-19T00:11:02.598Z,98324.94
2023-10-19T00:13:30.200Z,98325.03
2023-10-19T00:15:58.845Z,98319.63
2023-10-19T00:18:25.590Z,98321.53
2023-10-19T00:20:54.246Z,98322.00
2023-10-19T00:23:32.105Z,98308.72
2023-10-19T00:26:10.913Z,98310.34
2023-10-19T00:28:39.658Z,98307.03
2023-10-19T00:31:09.503Z,98304.25
2023-10-19T00:33:39.866Z,98297.44
2023-10-19T00:36:10.351Z,98297.94
2023-10-19T00:38:37.887Z,98316.31
2023-10-19T00:41:11.273Z,98313.41
2023-10-19T00:43:45.790Z,98303.56
2023-10-19T00:46:22.613Z,98308.78
2023-10-19T00:48:59.364Z,98287.75
2023-10-19T00:51:34.411Z,98298.84
2023-10-19T00:54:10.428Z,98276.84
2023-10-19T00:56:37.350Z,98288.69
2023-10-19T00:59:20.598Z,98281.47
2023-10-19T01:01:49.371Z,98270.47
2023-10-19T01:04:21.378Z,98272.00
2023-10-19T01:07:01.930Z,98261.16
2023-10-19T01:09:29.745Z,98265.16
2023-10-19T01:11:56.439Z,98264.75
2023-10-19T01:14:24.572Z,98262.44
2023-10-19T01:16:51.179Z,98245.66
2023-10-19T01:19:21.891Z,98246.13
2023-10-19T01:21:52.477Z,98244.97
2023-10-19T01:24:25.656Z,98249.28
2023-10-19T01:26:52.364Z,98239.75
2023-10-19T01:29:27.110Z,98236.31
2023-10-19T01:32:07.526Z,98234.03
2023-10-19T01:34:38.112Z,98233.94
2023-10-19T01:37:07.486Z,98230.56
2023-10-19T01:39:36.514Z,98217.59
2023-10-19T01:42:06.158Z,98222.28
2023-10-19T01:44:33.000Z,98236.91
2023-10-19T01:47:02.029Z,98240.09
2023-10-19T01:49:29.332Z,98240.41
2023-10-19T01:51:56.182Z,98225.09
2023-10-19T01:54:25.796Z,98225.69
2023-10-19T01:56:57.657Z,98212.63
2023-10-19T01:59:28.375Z,98226.25
2023-10-19T02:01:56.109Z,98220.59
2023-10-19T02:04:26.936Z,98210.28
2023-10-19T02:06:54.516Z,98215.50
2023-10-19T02:09:33.633Z,98218.91
2023-10-19T02:12:00.134Z,98210.28
2023-10-19T02:14:28.119Z,98210.16
2023-10-19T02:17:00.573Z,98202.38
2023-10-19T02:19:28.457Z,98205.28
2023-10-19T02:22:00.597Z,98205.28
2023-10-19T02:24:27.452Z,98177.69
2023-10-19T02:26:56.543Z,98188.22
2023-10-19T02:29:23.371Z,98197.16
2023-10-19T02:31:50.860Z,98189.72
2023-10-19T02:34:17.304Z,98192.06
2023-10-19T02:36:45.388Z,98190.47
2023-10-19T02:39:15.132Z,98186.84
2023-10-19T02:41:44.993Z,98194.63
2023-10-19T02:44:19.790Z,98183.97
2023-10-19T02:46:48.139Z,98183.22
2023-10-19T02:49:19.405Z,98179.72
2023-10-19T02:51:47.077Z,98173.50
2023-10-19T02:54:21.038Z,98178.75
2023-10-19T02:56:52.875Z,98155.09
2023-10-19T02:59:24.159Z,98169.25
2023-10-19T03:02:16.680Z,98145.66
2023-10-19T03:04:43.970Z,98152.97
2023-10-19T03:07:13.597Z,98153.94
2023-10-19T03:09:39.996Z,98157.78
2023-10-19T03:12:15.072Z,98164.81
2023-10-19T03:14:47.578Z,98169.94
2023-10-19T03:17:14.127Z,98165.22
2023-10-19T03:19:40.503Z,98165.13
2023-10-19T03:22:10.268Z,98151.81
2023-10-19T03:24:37.170Z,98149.25
2023-10-19T03:27:13.827Z,98173.09
2023-10-19T03:29:41.631Z,98165.97
2023-10-19T03:32:08.548Z,98161.94
2023-10-19T03:34:39.261Z,98154.47
2023-10-19T03:37:07.553Z,98138.91
2023-10-19T03:39:35.381Z,98157.88
2023-10-19T03:42:02.002Z,98152.44
2023-10-19T03:44:36.840Z,98145.63
2023-10-19T03:47:06.308Z,98143.91
2023-10-19T03:49:37.649Z,98145.41
2023-10-19T03:52:10.201Z,98131.34
2023-10-19T03:54:43.007Z,98131.56
2023-10-19T03:57:16.187Z,98128.06
2023-10-19T03:59:43.402Z,98128.81
2023-10-19T04:02:17.904Z,98124.34
2023-10-19T04:04:45.157Z,98121.03
2023-10-19T04:07:18.761Z,98116.53
2023-10-19T04:10:04.212Z,98109.63
2023-10-19T04:12:31.973Z,98108.16
2023-10-19T04:15:10.887Z,98098.47
2023-10-19T04:17:40.958Z,98109.22
2023-10-19T04:20:20.153Z,98094.53
2023-10-19T04:22:48.104Z,98095.69
2023-10-19T04:25:19.893Z,98096.75
2023-10-19T04:27:47.734Z,98098.91
2023-10-19T04:30:19.177Z,98096.34
2023-10-19T04:32:50.558Z,98101.75
2023-10-19T04:35:23.665Z,98086.13
2023-10-19T04:37:51.748Z,98084.72
2023-10-19T04:40:18.940Z,98085.81
2023-10-19T04:42:47.009Z,98086.78
2023-10-19T04:45:14.742Z,98091.53
2023-10-19T04:47:41.300Z,98091.66
2023-10-19T04:50:08.192Z,98095.38
2023-10-19T04:52:35.259Z,98102.84
2023-10-19T04:55:02.371Z,98107.81
2023-10-19T04:57:29.110Z,98100.25
2023-10-19T04:59:56.442Z,98103.34
2023-10-19T05:02:23.474Z,98114.81
2023-10-19T05:04:50.095Z,98105.91
2023-10-19T05:07:19.704Z,98110.72
2023-10-19T05:09:47.043Z,98096.97
2023-10-19T05:12:15.649Z,98082.63
2023-10-19T05:14:43.321Z,98092.09
2023-10-19T05:17:10.602Z,98086.66
2023-10-19T05:19:38.695Z,98088.78
2023-10-19T05:22:07.175Z,98092.09
2023-10-19T05:24:34.016Z,98085.72
2023-10-19T05:27:00.785Z,98087.28
2023-10-19T05:29:27.494Z,98082.81
2023-10-19T05:31:55.238Z,98091.66
2023-10-19T05:34:22.643Z,98081.22
2023-10-19T05:36:52.814Z,98080.28
2023-10-19T05:39:19.391Z,98083.03
2023-10-19T05:41:45.694Z,98095.38
2023-10-19T05:44:12.091Z,98089.44
2023-10-19T05:46:39.370Z,98089.63
2023-10-19T05:49:07.297Z,98096.78
2023-10-19T05:51:33.861Z,98099.53
2023-10-19T05:54:02.961Z,98096.03
2023-10-19T05:56:31.577Z,98090.47
2023-10-19T05:58:58.866Z,98091.97
2023-10-19T06:01:25.673Z,98096.25
2023-10-19T06:03:52.432Z,98092.72
2023-10-19T06:06:20.809Z,98096.03
2023-10-19T06:08:47.569Z,98096.66
2023-10-19T06:11:14.464Z,98093.25
2023-10-19T06:13:40.912Z,98097.50
2023-10-19T06:16:07.492Z,98091.88
2023-10-19T06:18:34.043Z,98096.75
2023-10-19T06:21:00.458Z,98090.16
2023-10-19T06:23:26.793Z,98089.00
2023-10-19T06:25:53.256Z,98098.16
2023-10-19T06:28:19.625Z,98105.63
2023-10-19T06:30:49.192Z,98106.88
2023-10-19T06:33:15.766Z,98097.06
2023-10-19T06:35:42.194Z,98111.00
2023-10-19T06:38:10.503Z,98103.66
2023-10-19T06:40:37.575Z,98111.31
2023-10-19T06:43:04.240Z,98111.00
2023-10-19T06:45:30.919Z,98103.00
2023-10-19T06:47:58.151Z,98102.47
2023-10-19T06:50:25.235Z,98112.44
2023-10-19T06:52:52.878Z,98099.75
2023-10-19T06:55:21.142Z,98097.59
2023-10-19T06:57:52.559Z,98102.47
2023-10-19T07:00:21.350Z,98104.69
2023-10-19T07:02:49.066Z,98093.69
2023-10-19T07:05:19.438Z,98106.66
2023-10-19T07:07:46.673Z,98108.97
2023-10-19T07:10:14.972Z,98102.47
2023-10-19T07:12:52.957Z,98098.50
2023-10-19T07:15:23.384Z,98106.28
2023-10-19T07:17:53.448Z,98105.09
2023-10-19T07:20:26.563Z,98090.44
2023-10-19T07:22:57.785Z,98088.28
2023-10-19T07:25:26.760Z,98095.47
2023-10-19T07:27:54.241Z,98088.69
2023-10-19T07:30:22.480Z,98089.53
2023-10-19T07:32:55.365Z,98099.34
2023-10-19T07:35:23.751Z,98097.41
2023-10-19T07:37:51.311Z,98090.41
2023-10-19T07:40:19.010Z,98088.13
2023-10-19T07:42:46.751Z,98093.59
2023-10-19T07:45:13.651Z,98094.97
2023-10-19T07:47:44.305Z,98098.00
2023-10-19T07:50:16.965Z,98088.78
2023-10-19T07:52:52.109Z,98085.03
2023-10-19T07:55:20.068Z,98084.69
2023-10-19T07:57:46.455Z,98086.88
2023-10-19T08:00:16.215Z,98082.50
2023-10-19T08:02:48.698Z,98079.34
2023-10-19T08:05:16.107Z,98081.41
2023-10-19T08:07:48.204Z,98067.94
2023-10-19T08:10:17.588Z,98079.47
2023-10-19T08:12:48.472Z,98070.63
2023-10-19T08:15:16.622Z,98073.28
2023-10-19T08:17:46.213Z,98069.53
2023-10-19T08:20:17.469Z,98084.44
2023-10-19T08:22:47.696Z,98083.97
2023-10-19T08:25:16.104Z,98070.34
2023-10-19T08:27:45.961Z,98073.97
2023-10-19T08:30:21.302Z,98089.03
2023-10-19T08:32:52.487Z,98088.88
2023-10-19T08:35:25.273Z,98087.53
2023-10-19T08:37:52.079Z,98079.50
2023-10-19T08:40:19.328Z,98073.06
2023-10-19T08:42:46.902Z,98079.78
2023-10-19T08:45:14.419Z,98067.47
2023-10-19T08:48:00.701Z,98062.13
2023-10-19T08:50:38.484Z,98059.44
2023-10-19T08:53:09.661Z,98059.25
2023-10-19T08:55:49.501Z,98042.59
2023-10-19T08:58:19.380Z,98039.34
2023-10-19T09:00:55.778Z,98042.34
2023-10-19T09:03:23.542Z,98047.41
2023-10-19T09:05:50.522Z,98054.19
2023-10-19T09:08:19.021Z,98052.59
2023-10-19T09:10:47.173Z,98043.22
2023-10-19T09:13:15.622Z,98032.75
2023-10-19T09:15:42.784Z,98034.81
2023-10-19T09:18:23.929Z,98030.63
2023-10-19T09:20:55.456Z,98017.44
2023-10-19T09:23:28.299Z,98024.06
2023-10-19T09:25:54.946Z,98032.81
2023-10-19T09:28:23.205Z,98015.72
2023-10-19T09:30:51.267Z,98024.44
2023-10-19T09:33:18.937Z,98021.09
2023-10-19T09:35:49.616Z,98006.94
2023-10-19T09:38:23.126Z,98018.56
2023-10-19T09:40:51.638Z,98017.00
2023-10-19T09:43:25.807Z,98013.78
2023-10-19T09:45:55.562Z,98012.66
2023-10-19T09:48:22.576Z,98005.50
2023-10-19T09:50:56.342Z,98017.22
2023-10-19T09:53:26.416Z,98020.19
2023-10-19T09:55:56.930Z,98009.19
2023-10-19T09:58:27.309Z,98010.88
2023-10-19T10:00:53.760Z,98009.47
2023-10-19T10:03:48.616Z,98015.66
2023-10-19T10:06:28.917Z,97998.34
2023-10-19T10:08:57.033Z,98010.19
2023-10-19T10:11:28.018Z,98011.72
2023-10-19T10:13:56.834Z,98006.66
2023-10-19T10:16:26.130Z,98003.16
2023-10-19T10:18:56.806Z,98000.59
2023-10-19T10:21:27.677Z,98001.31
2023-10-19T10:24:00.604Z,98000.38
2023-10-19T10:26:37.848Z,97995.25
2023-10-19T10:29:23.552Z,97988.72
2023-10-19T10:31:50.834Z,97986.00
2023-10-19T10:34:38.795Z,97993.06
2023-10-19T10:37:08.959Z,97994.31
2023-10-19T10:39:40.562Z,97993.03
2023-10-19T10:42:08.486Z,97985.59
2023-10-19T10:44:41.265Z,97984.97
2023-10-19T10:47:09.582Z,97987.84
2023-10-19T10:49:59.017Z,98002.50
2023-10-19T10:52:36.534Z,97992.44
2023-10-19T10:55:14.464Z,97980.72
2023-10-19T10:57:44.609Z,97992.25
2023-10-19T11:00:24.804Z,97991.84
2023-10-19T11:03:08.544Z,97984.53
2023-10-19T11:05:36.451Z,97999.97
2023-10-19T11:08:19.376Z,97979.94
2023-10-19T11:10:49.860Z,97981.91
2023-10-19T11:13:18.126Z,97979.69
2023-10-19T11:15:51.129Z,97981.44
2023-10-19T11:18:53.030Z,97970.00
2023-10-19T11:21:19.759Z,97965.50
2023-10-19T11:23:48.817Z,97973.88
2023-10-19T11:26:20.033Z,97978.50
2023-10-19T11:28:52.607Z,97981.34
2023-10-19T11:31:19.872Z,97983.19
2023-10-19T11:33:49.669Z,97975.28
2023-10-19T11:36:17.661Z,97968.25
2023-10-19T11:38:45.714Z,97972.34
2023-10-19T11:41:14.291Z,97962.28
2023-10-19T11:43:44.034Z,97964.56
2023-10-19T11:46:13.022Z,97965.56
2023-10-19T11:48:43.464Z,97959.34
2023-10-19T11:51:12.069Z,97948.19
2023-10-19T11:53:39.585Z,97946.78
2023-10-19T11:56:08.621Z,97949.34
2023-10-19T11:58:36.024Z,97939.19
2023-10-19T12:01:17.771Z,97942.56
2023-10-19T12:03:46.707Z,97939.44
2023-10-19T12:06:14.741Z,97934.94
2023-10-19T12:08:41.485Z,97941.03
2023-10-19T12:11:17.615Z,97923.97
2023-10-19T12:13:44.613Z,97921.19
2023-10-19T12:16:13.663Z,97922.59
2023-10-19T12:18:40.655Z,97923.19
2023-10-19T12:21:12.624Z,97925.47
2023-10-19T12:23:44.284Z,97919.53
2023-10-19T12:26:14.200Z,97922.53
2023-10-19T12:28:41.982Z,97928.88
2023-10-19T12:31:10.034Z,97925.22
2023-10-19T12:33:37.384Z,97918.84
2023-10-19T12:36:23.000Z,97921.41
2023-10-19T12:38:50.527Z,97912.91
2023-10-19T12:41:18.365Z,97907.00
2023-10-19T12:43:44.846Z,97909.28
2023-10-19T12:46:13.193Z,97909.72
2023-10-19T12:48:39.593Z,97904.22
2023-10-19T12:51:08.090Z,97905.06
2023-10-19T12:53:34.505Z,97913.09
2023-10-19T12:56:00.934Z,97911.00
2023-10-19T12:58:28.752Z,97908.06
2023-10-19T13:00:56.991Z,97905.19
2023-10-19T13:03:25.040Z,97911.56
2023-10-19T13:05:51.429Z,97898.31
2023-10-19T13:08:17.870Z,97904.94
2023-10-19T13:10:45.912Z,97904.09
2023-10-19T13:13:14.192Z,97908.63
2023-10-19T13:15:42.840Z,97899.75
2023-10-19T13:18:10.943Z,97895.78
2023-10-19T13:20:39.710Z,97900.28
2023-10-19T13:23:20.833Z,97901.84
2023-10-19T13:26:10.412Z,97904.00
2023-10-19T13:28:39.914Z,97895.81
2023-10-19T13:31:10.225Z,97908.06
2023-10-19T13:33:37.646Z,97905.22
2023-10-19T13:36:06.748Z,97915.81
2023-10-19T13:38:33.935Z,97910.75
2023-10-19T13:41:03.402Z,97901.31
2023-10-19T13:43:32.066Z,97901.56
2023-10-19T13:46:02.476Z,97905.50
2023-10-19T13:48:29.076Z,97903.69
2023-10-19T13:51:01.307Z,97901.56
2023-10-19T13:53:28.516Z,97903.94
2023-10-19T13:55:54.965Z,97890.69
2023-10-19T13:58:22.291Z,97895.69
2023-10-19T14:00:50.244Z,97899.50
2023-10-19T14:03:16.858Z,97887.47
2023-10-19T14:05:48.963Z,97888.59
2023-10-19T14:08:17.722Z,97879.03
2023-10-19T14:10:44.440Z,97870.56
2023-10-19T14:13:17.984Z,97876.06
2023-10-19T14:15:45.142Z,97872.53
2023-10-19T14:18:14.866Z,97869.00
2023-10-19T14:20:41.705Z,97871.28
2023-10-19T14:23:08.734Z,97864.22
2023-10-19T14:25:43.685Z,97861.69
2023-10-19T14:28:10.835Z,97854.22
2023-10-19T14:30:37.264Z,97855.22
2023-10-19T14:33:03.936Z,97846.75
2023-10-19T14:35:30.333Z,97841.38
2023-10-19T14:37:57.825Z,97836.59
2023-10-19T14:40:27.533Z,97836.16
2023-10-19T14:42:55.632Z,97836.41
2023-10-19T14:45:29.547Z,97828.69
2023-10-19T14:48:02.588Z,97817.97
2023-10-19T14:50:30.372Z,97811.63
2023-10-19T14:52:57.648Z,97812.03
2023-10-19T14:55:24.445Z,97800.06
2023-10-19T14:57:56.241Z,97786.25
2023-10-19T15:00:34.221Z,97790.88
2023-10-19T15:03:05.899Z,97763.72
2023-10-19T15:05:36.403Z,97747.19
2023-10-19T15:08:05.808Z,97738.22
2023-10-19T15:10:32.493Z,97731.16
2023-10-19T15:13:01.917Z,97721.44
2023-10-19T15:15:29.832Z,97714.41
2023-10-19T15:17:57.097Z,97704.56
2023-10-19T15:20:28.537Z,97698.63
2023-10-19T15:22:55.697Z,97707.78
2023-10-19T15:25:25.402Z,97702.31
2023-10-19T15:27:52.535Z,97712.47
2023-10-19T15:30:21.524Z,97708.53
2023-10-19T15:32:49.145Z,97706.44
2023-10-19T15:35:17.274Z,97705.84
2023-10-19T15:37:49.224Z,97698.13
2023-10-19T15:40:17.074Z,97686.88
2023-10-19T15:42:44.441Z,97672.34
2023-10-19T15:45:15.526Z,97674.03
2023-10-19T15:47:42.401Z,97658.69
2023-10-19T15:50:09.947Z,97649.69
2023-10-19T15:52:37.407Z,97637.97
2023-10-19T15:55:04.266Z,97627.69
2023-10-19T15:57:31.728Z,97633.75
2023-10-19T15:59:58.095Z,97635.03
2023-10-19T16:02:24.567Z,97637.13
2023-10-19T16:04:51.180Z,97643.63
2023-10-19T16:07:17.577Z,97647.56
2023-10-19T16:09:44.214Z,97650.22
2023-10-19T16:12:12.155Z,97660.94
2023-10-19T16:14:41.313Z,97658.69
2023-10-19T16:17:10.065Z,97654.47
2023-10-19T16:19:36.636Z,97675.00
2023-10-19T16:22:03.195Z,97680.78
2023-10-19T16:24:30.339Z,97682.03
2023-10-19T16:26:59.644Z,97691.63
2023-10-19T16:29:27.247Z,97694.53
2023-10-19T16:31:59.343Z,97696.09
2023-10-19T16:34:26.498Z,97694.25
2023-10-19T16:36:53.346Z,97690.56
2023-10-19T16:39:19.850Z,97687.88
2023-10-19T16:41:46.895Z,97689.53
2023-10-19T16:44:13.971Z,97677.91
2023-10-19T16:46:40.724Z,97681.41
2023-10-19T16:49:07.417Z,97681.94
2023-10-19T16:51:41.459Z,97699.34
2023-10-19T16:54:09.337Z,97698.91
2023-10-19T16:56:36.802Z,97691.28
2023-10-19T16:59:03.797Z,97689.84
2023-10-19T17:01:30.394Z,97679.69
2023-10-19T17:03:57.221Z,97689.13
2023-10-19T17:06:23.793Z,97695.19
2023-10-19T17:08:50.151Z,97701.94
2023-10-19T17:11:17.766Z,97709.00
2023-10-19T17:13:44.459Z,97705.63
2023-10-19T17:16:11.481Z,97695.19
2023-10-19T17:18:38.165Z,97706.84
2023-10-19T17:21:04.661Z,97707.09
2023-10-19T17:23:31.052Z,97700.38
2023-10-19T17:25:58.471Z,97685.44
2023-10-19T17:28:24.994Z,97678.53
2023-10-19T17:30:52.277Z,97684.00
2023-10-19T17:33:19.253Z,97690.31
2023-10-19T17:35:46.041Z,97712.66
2023-10-19T17:38:13.823Z,97712.53
2023-10-19T17:40:40.704Z,97698.47
2023-10-19T17:43:10.459Z,97703.69
2023-10-19T17:45:37.613Z,97701.13
2023-10-19T17:48:05.011Z,97678.47
2023-10-19T17:50:32.758Z,97689.28
2023-10-19T17:53:00.733Z,97684.09
2023-10-19T17:55:28.154Z,97691.38
2023-10-19T17:57:54.718Z,97687.16
2023-10-19T18:00:21.056Z,97675.75
2023-10-19T18:02:47.537Z,97679.66
2023-10-19T18:05:15.410Z,97673.31
2023-10-19T18:07:42.571Z,97684.16
2023-10-19T18:10:09.832Z,97687.06
2023-10-19T18:12:36.494Z,97683.84
2023-10-19T18:15:03.080Z,97682.25
2023-10-19T18:17:30.128Z,97688.47
2023-10-19T18:19:56.625Z,97681.69
2023-10-19T18:22:22.996Z,97684.19
2023-10-19T18:24:49.404Z,97680.81
2023-10-19T18:27:16.605Z,97685.31
2023-10-19T18:29:44.961Z,97687.97
2023-10-19T18:32:12.391Z,97675.75
2023-10-19T18:34:38.882Z,97677.44
2023-10-19T18:37:07.089Z,97671.25
2023-10-19T18:39:33.498Z,97664.81
2023-10-19T18:41:59.814Z,97649.06
2023-10-19T18:44:26.258Z,97648.78
2023-10-19T18:46:52.950Z,97630.91
2023-10-19T18:49:20.020Z,97629.66
2023-10-19T18:51:46.447Z,97636.84
2023-10-19T18:54:17.787Z,97627.41
2023-10-19T18:56:44.221Z,97634.41
2023-10-19T18:59:10.621Z,97628.50
2023-10-19T19:01:36.957Z,97618.78
2023-10-19T19:04:03.303Z,97616.53
2023-10-19T19:06:29.670Z,97621.25
2023-10-19T19:08:56.012Z,97622.25
2023-10-19T19:11:22.440Z,97636.44
2023-10-19T19:13:48.915Z,97626.59
2023-10-19T19:16:15.884Z,97615.94
2023-10-19T19:18:43.870Z,97606.38
2023-10-19T19:21:10.975Z,97612.41
2023-10-19T19:23:41.562Z,97607.34
2023-10-19T19:26:09.366Z,97614.09
2023-10-19T19:28:39.993Z,97614.09
2023-10-19T19:31:06.508Z,97604.53
2023-10-19T19:33:33.042Z,97604.41
2023-10-19T19:35:59.386Z,97598.50
2023-10-19T19:38:25.780Z,97594.88
2023-10-19T19:40:55.185Z,97598.38
2023-10-19T19:43:22.427Z,97604.53
2023-10-19T19:45:48.798Z,97595.81
2023-10-19T19:48:15.292Z,97593.03
2023-10-19T19:50:44.907Z,97600.03
2023-10-19T19:53:14.515Z,97595.56
2023-10-19T19:55:42.401Z,97577.88
2023-10-19T19:58:09.631Z,97578.47
2023-10-19T20:00:39.112Z,97592.50
2023-10-19T20:03:05.709Z,97600.50
2023-10-19T20:05:33.735Z,97593.47
2023-10-19T20:08:01.397Z,97594.19
2023-10-19T20:10:46.471Z,97585.34
2023-10-19T20:13:17.056Z,97583.66
2023-10-19T20:15:44.115Z,97604.16
2023-10-19T20:18:12.245Z,97609.47
2023-10-19T20:20:39.169Z,97605.97
2023-10-19T20:23:05.726Z,97590.97
2023-10-19T20:25:32.292Z,97589.72
2023-10-19T20:28:05.632Z,97589.56
2023-10-19T20:30:34.501Z,97596.72
2023-10-19T20:33:00.924Z,97582.56
2023-10-19T20:35:27.639Z,97592.25
2023-10-19T20:37:54.437Z,97587.91
2023-10-19T20:40:22.467Z,97588.63
2023-10-19T20:42:52.606Z,97578.34
2023-10-19T20:45:19.265Z,97577.22
2023-10-19T20:47:50.836Z,97573.72
2023-10-19T20:50:17.584Z,97567.50
2023-10-19T20:52:44.092Z,97563.28
2023-10-19T20:55:12.437Z,97567.50
2023-10-19T20:57:39.006Z,97549.81
2023-10-19T21:00:06.357Z,97546.31
2023-10-19T21:02:32.926Z,97553.09
2023-10-19T21:04:59.470Z,97553.09
2023-10-19T21:07:27.021Z,97545.09
2023-10-19T21:09:53.878Z,97532.81
2023-10-19T21:12:20.286Z,97520.34
2023-10-19T21:14:46.636Z,97510.66
2023-10-19T21:17:13.997Z,97513.31
2023-10-19T21:19:40.423Z,97530.16
2023-10-19T21:22:08.458Z,97525.69
2023-10-19T21:24:35.420Z,97507.16
2023-10-19T21:27:01.863Z,97514.88
2023-10-19T21:29:28.241Z,97515.72
2023-10-19T21:31:54.634Z,97499.84
2023-10-19T21:34:21.019Z,97484.81
2023-10-19T21:36:47.532Z,97481.31
2023-10-19T21:39:13.834Z,97478.50
2023-10-19T21:41:40.196Z,97475.97
2023-10-19T21:44:06.739Z,97475.13
2023-10-19T21:46:33.197Z,97464.28
2023-10-19T21:48:59.544Z,97463.88
2023-10-19T21:51:25.886Z,97459.53
2023-10-19T21:53:52.222Z,97454.44
2023-10-19T21:56:18.754Z,97446.31
2023-10-19T21:58:45.174Z,97433.94
2023-10-19T22:01:14.561Z,97419.88
2023-10-19T22:03:42.586Z,97406.31
2023-10-19T22:06:09.207Z,97404.59
2023-10-19T22:08:36.314Z,97410.94
2023-10-19T22:11:03.368Z,97407.53
2023-10-19T22:13:29.807Z,97404.47
2023-10-19T22:15:56.162Z,97399.84
2023-10-19T22:18:23.502Z,97398.47
2023-10-19T22:20:51.811Z,97386.97
2023-10-19T22:23:18.371Z,97390.34
2023-10-19T22:25:44.735Z,97388.50
2023-10-19T22:28:13.622Z,97377.97
2023-10-19T22:30:40.018Z,97382.59
2023-10-19T22:33:06.444Z,97387.81
2023-10-19T22:35:32.834Z,97378.66
2023-10-19T22:37:59.276Z,97371.78
2023-10-19T22:40:25.674Z,97374.16
2023-10-19T22:42:54.404Z,97366.16
2023-10-19T22:45:21.538Z,97365.34
2023-10-19T22:47:47.926Z,97362.66
2023-10-19T22:50:18.034Z,97356.75
2023-10-19T22:52:45.518Z,97351.28
2023-10-19T22:55:14.866Z,97344.28
2023-10-19T22:57:41.959Z,97327.41
2023-10-19T23:00:15.670Z,97332.47
2023-10-19T23:02:46.330Z,97330.53
2023-10-19T23:05:14.367Z,97329.53
2023-10-19T23:07:40.952Z,97323.34
2023-10-19T23:10:07.934Z,97320.69
2023-10-19T23:12:34.754Z,97318.00
2023-10-19T23:15:02.768Z,97303.00
2023-10-19T23:17:32.712Z,97298.34
2023-10-19T23:19:59.583Z,97290.34
2023-10-19T23:22:26.376Z,97297.38
2023-10-19T23:24:56.837Z,97297.09
2023-10-19T23:27:25.674Z,97298.66
2023-10-19T23:29:52.023Z,97299.50
2023-10-19T23:32:19.329Z,97297.53
2023-10-19T23:34:48.913Z,97292.91
2023-10-19T23:37:15.652Z,97292.91
2023-10-19T23:39:46.240Z,97281.41
2023-10-19T23:42:15.492Z,97276.31
2023-10-19T23:44:42.644Z,97289.41
2023-10-19T23:47:09.093Z,97288.28
2023-10-19T23:49:35.435Z,97290.38
2023-10-19T23:52:01.806Z,97291.94
2023-10-19T23:54:29.128Z,97292.34
2023-10-19T23:56:55.470Z,97287.28
2023-10-19T23:59:21.898Z,97293.03
